sensor_id;sensor_type;location;lat;lon;timestamp;pressure;altitude;pressure_sealevel;temperature
74539;BMP180;66042;51.090;-115.340;2023-05-07T00:01:41;86386.20;;;10.18
74539;BMP180;66042;51.090;-115.340;2023-05-07T00:04:19;86385.40;;;10.10
74539;BMP180;66042;51.090;-115.340;2023-05-07T00:06:49;86387.20;;;10.10
74539;BMP180;66042;51.090;-115.340;2023-05-07T00:09:16;86394.80;;;10.00
74539;BMP180;66042;51.090;-115.340;2023-05-07T00:11:43;86393.80;;;10.00
74539;BMP180;66042;51.090;-115.340;2023-05-07T00:14:10;86399.80;;;10.00
74539;BMP180;66042;51.090;-115.340;2023-05-07T00:16:40;86397.60;;;10.00
74539;BMP180;66042;51.090;-115.340;2023-05-07T00:19:07;86398.80;;;10.00
74539;BMP180;66042;51.090;-115.340;2023-05-07T00:21:33;86399.40;;;9.94
74539;BMP180;66042;51.090;-115.340;2023-05-07T00:24:00;86400.20;;;9.90
74539;BMP180;66042;51.090;-115.340;2023-05-07T00:26:27;86404.00;;;9.90
74539;BMP180;66042;51.090;-115.340;2023-05-07T00:28:54;86404.20;;;9.90
74539;BMP180;66042;51.090;-115.340;2023-05-07T00:31:20;86401.80;;;9.80
74539;BMP180;66042;51.090;-115.340;2023-05-07T00:33:50;86401.80;;;9.80
74539;BMP180;66042;51.090;-115.340;2023-05-07T00:36:17;86400.00;;;9.70
74539;BMP180;66042;51.090;-115.340;2023-05-07T00:38:44;86402.80;;;9.60
74539;BMP180;66042;51.090;-115.340;2023-05-07T00:41:11;86407.60;;;9.60
74539;BMP180;66042;51.090;-115.340;2023-05-07T00:43:38;86406.40;;;9.50
74539;BMP180;66042;51.090;-115.340;2023-05-07T00:46:05;86411.60;;;9.50
74539;BMP180;66042;51.090;-115.340;2023-05-07T00:48:34;86409.40;;;9.50
74539;BMP180;66042;51.090;-115.340;2023-05-07T00:51:01;86404.40;;;9.50
74539;BMP180;66042;51.090;-115.340;2023-05-07T00:53:28;86408.00;;;9.50
74539;BMP180;66042;51.090;-115.340;2023-05-07T00:55:55;86412.60;;;9.50
74539;BMP180;66042;51.090;-115.340;2023-05-07T00:58:22;86409.40;;;9.42
74539;BMP180;66042;51.090;-115.340;2023-05-07T01:00:49;86409.60;;;9.46
74539;BMP180;66042;51.090;-115.340;2023-05-07T01:03:17;86412.60;;;9.40
74539;BMP180;66042;51.090;-115.340;2023-05-07T01:05:46;86413.20;;;9.50
74539;BMP180;66042;51.090;-115.340;2023-05-07T01:08:15;86407.80;;;9.50
74539;BMP180;66042;51.090;-115.340;2023-05-07T01:10:43;86404.80;;;9.50
74539;BMP180;66042;51.090;-115.340;2023-05-07T01:13:11;86413.80;;;9.50
74539;BMP180;66042;51.090;-115.340;2023-05-07T01:15:38;86414.80;;;9.50
74539;BMP180;66042;51.090;-115.340;2023-05-07T01:18:10;86417.40;;;9.50
74539;BMP180;66042;51.090;-115.340;2023-05-07T01:20:37;86414.40;;;9.50
74539;BMP180;66042;51.090;-115.340;2023-05-07T01:23:07;86416.40;;;9.50
74539;BMP180;66042;51.090;-115.340;2023-05-07T01:25:34;86412.80;;;9.50
74539;BMP180;66042;51.090;-115.340;2023-05-07T01:28:01;86414.20;;;9.50
74539;BMP180;66042;51.090;-115.340;2023-05-07T01:30:29;86413.00;;;9.42
74539;BMP180;66042;51.090;-115.340;2023-05-07T01:33:09;86416.40;;;9.40
74539;BMP180;66042;51.090;-115.340;2023-05-07T01:35:41;86412.00;;;9.40
74539;BMP180;66042;51.090;-115.340;2023-05-07T01:38:09;86413.20;;;9.40
74539;BMP180;66042;51.090;-115.340;2023-05-07T01:40:36;86408.80;;;9.30
74539;BMP180;66042;51.090;-115.340;2023-05-07T01:43:03;86409.20;;;9.30
74539;BMP180;66042;51.090;-115.340;2023-05-07T01:45:32;86416.00;;;9.30
74539;BMP180;66042;51.090;-115.340;2023-05-07T01:48:02;86420.80;;;9.30
74539;BMP180;66042;51.090;-115.340;2023-05-07T01:50:32;86422.40;;;9.30
74539;BMP180;66042;51.090;-115.340;2023-05-07T01:53:01;86422.20;;;9.24
74539;BMP180;66042;51.090;-115.340;2023-05-07T01:55:29;86416.60;;;9.30
74539;BMP180;66042;51.090;-115.340;2023-05-07T01:57:56;86416.20;;;9.20
74539;BMP180;66042;51.090;-115.340;2023-05-07T02:00:23;86419.00;;;9.20
74539;BMP180;66042;51.090;-115.340;2023-05-07T02:02:50;86418.00;;;9.12
74539;BMP180;66042;51.090;-115.340;2023-05-07T02:05:18;86413.20;;;9.10
74539;BMP180;66042;51.090;-115.340;2023-05-07T02:07:45;86416.80;;;9.10
74539;BMP180;66042;51.090;-115.340;2023-05-07T02:10:12;86411.40;;;9.06
74539;BMP180;66042;51.090;-115.340;2023-05-07T02:12:39;86412.40;;;9.08
74539;BMP180;66042;51.090;-115.340;2023-05-07T02:15:07;86413.40;;;9.00
74539;BMP180;66042;51.090;-115.340;2023-05-07T02:17:34;86416.00;;;9.02
74539;BMP180;66042;51.090;-115.340;2023-05-07T02:20:01;86418.80;;;9.08
74539;BMP180;66042;51.090;-115.340;2023-05-07T02:22:30;86422.20;;;9.04
74539;BMP180;66042;51.090;-115.340;2023-05-07T02:24:56;86415.60;;;9.00
74539;BMP180;66042;51.090;-115.340;2023-05-07T02:27:23;86414.40;;;9.10
74539;BMP180;66042;51.090;-115.340;2023-05-07T02:29:50;86414.00;;;9.00
74539;BMP180;66042;51.090;-115.340;2023-05-07T02:32:17;86411.60;;;9.00
74539;BMP180;66042;51.090;-115.340;2023-05-07T02:34:45;86408.80;;;8.94
74539;BMP180;66042;51.090;-115.340;2023-05-07T02:37:12;86406.40;;;8.90
74539;BMP180;66042;51.090;-115.340;2023-05-07T02:39:42;86402.40;;;8.90
74539;BMP180;66042;51.090;-115.340;2023-05-07T02:42:09;86404.80;;;8.88
74539;BMP180;66042;51.090;-115.340;2023-05-07T02:44:36;86408.60;;;8.80
74539;BMP180;66042;51.090;-115.340;2023-05-07T02:47:03;86408.60;;;8.80
74539;BMP180;66042;51.090;-115.340;2023-05-07T02:49:30;86406.20;;;8.70
74539;BMP180;66042;51.090;-115.340;2023-05-07T02:51:57;86405.20;;;8.70
74539;BMP180;66042;51.090;-115.340;2023-05-07T02:54:23;86401.80;;;8.60
74539;BMP180;66042;51.090;-115.340;2023-05-07T02:56:53;86402.80;;;8.60
74539;BMP180;66042;51.090;-115.340;2023-05-07T02:59:20;86405.20;;;8.60
74539;BMP180;66042;51.090;-115.340;2023-05-07T03:01:47;86406.60;;;8.54
74539;BMP180;66042;51.090;-115.340;2023-05-07T03:04:15;86404.00;;;8.50
74539;BMP180;66042;51.090;-115.340;2023-05-07T03:06:42;86405.80;;;8.46
74539;BMP180;66042;51.090;-115.340;2023-05-07T03:09:10;86402.80;;;8.40
74539;BMP180;66042;51.090;-115.340;2023-05-07T03:11:42;86405.00;;;8.40
74539;BMP180;66042;51.090;-115.340;2023-05-07T03:14:11;86405.00;;;8.40
74539;BMP180;66042;51.090;-115.340;2023-05-07T03:16:39;86401.40;;;8.40
74539;BMP180;66042;51.090;-115.340;2023-05-07T03:19:06;86406.00;;;8.40
74539;BMP180;66042;51.090;-115.340;2023-05-07T03:21:34;86402.80;;;8.40
74539;BMP180;66042;51.090;-115.340;2023-05-07T03:24:01;86401.80;;;8.40
74539;BMP180;66042;51.090;-115.340;2023-05-07T03:26:28;86404.80;;;8.40
74539;BMP180;66042;51.090;-115.340;2023-05-07T03:28:55;86399.80;;;8.40
74539;BMP180;66042;51.090;-115.340;2023-05-07T03:31:22;86403.20;;;8.40
74539;BMP180;66042;51.090;-115.340;2023-05-07T03:34:00;86401.80;;;8.40
74539;BMP180;66042;51.090;-115.340;2023-05-07T03:36:32;86398.40;;;8.40
74539;BMP180;66042;51.090;-115.340;2023-05-07T03:39:00;86397.60;;;8.34
74539;BMP180;66042;51.090;-115.340;2023-05-07T03:41:27;86397.80;;;8.30
74539;BMP180;66042;51.090;-115.340;2023-05-07T03:43:57;86399.80;;;8.30
74539;BMP180;66042;51.090;-115.340;2023-05-07T03:46:36;86399.00;;;8.30
74539;BMP180;66042;51.090;-115.340;2023-05-07T03:49:03;86399.00;;;8.30
74539;BMP180;66042;51.090;-115.340;2023-05-07T03:51:31;86397.00;;;8.30
74539;BMP180;66042;51.090;-115.340;2023-05-07T03:54:01;86392.60;;;8.30
74539;BMP180;66042;51.090;-115.340;2023-05-07T03:56:28;86391.40;;;8.30
74539;BMP180;66042;51.090;-115.340;2023-05-07T03:58:56;86382.40;;;8.28
74539;BMP180;66042;51.090;-115.340;2023-05-07T04:01:23;86383.20;;;8.20
74539;BMP180;66042;51.090;-115.340;2023-05-07T04:03:55;86386.60;;;8.20
74539;BMP180;66042;51.090;-115.340;2023-05-07T04:06:22;86387.00;;;8.20
74539;BMP180;66042;51.090;-115.340;2023-05-07T04:08:50;86391.00;;;8.20
74539;BMP180;66042;51.090;-115.340;2023-05-07T04:11:17;86381.40;;;8.10
74539;BMP180;66042;51.090;-115.340;2023-05-07T04:13:44;86380.60;;;8.10
74539;BMP180;66042;51.090;-115.340;2023-05-07T04:16:14;86377.80;;;8.12
74539;BMP180;66042;51.090;-115.340;2023-05-07T04:18:41;86381.60;;;8.20
74539;BMP180;66042;51.090;-115.340;2023-05-07T04:21:24;86375.40;;;8.20
74539;BMP180;66042;51.090;-115.340;2023-05-07T04:23:53;86378.60;;;8.20
74539;BMP180;66042;51.090;-115.340;2023-05-07T04:26:20;86374.80;;;8.20
74539;BMP180;66042;51.090;-115.340;2023-05-07T04:28:57;86372.40;;;8.30
74539;BMP180;66042;51.090;-115.340;2023-05-07T04:31:25;86371.40;;;8.30
74539;BMP180;66042;51.090;-115.340;2023-05-07T04:33:53;86371.00;;;8.30
74539;BMP180;66042;51.090;-115.340;2023-05-07T04:36:20;86370.80;;;8.30
74539;BMP180;66042;51.090;-115.340;2023-05-07T04:38:48;86366.80;;;8.30
74539;BMP180;66042;51.090;-115.340;2023-05-07T04:41:18;86366.00;;;8.30
74539;BMP180;66042;51.090;-115.340;2023-05-07T04:43:45;86359.20;;;8.30
74539;BMP180;66042;51.090;-115.340;2023-05-07T04:46:17;86359.20;;;8.24
74539;BMP180;66042;51.090;-115.340;2023-05-07T04:48:45;86359.20;;;8.20
74539;BMP180;66042;51.090;-115.340;2023-05-07T04:51:15;86357.80;;;8.20
74539;BMP180;66042;51.090;-115.340;2023-05-07T04:53:42;86356.00;;;8.28
74539;BMP180;66042;51.090;-115.340;2023-05-07T04:56:09;86355.40;;;8.22
74539;BMP180;66042;51.090;-115.340;2023-05-07T04:58:37;86350.60;;;8.20
74539;BMP180;66042;51.090;-115.340;2023-05-07T05:01:08;86342.80;;;8.20
74539;BMP180;66042;51.090;-115.340;2023-05-07T05:03:35;86342.80;;;8.20
74539;BMP180;66042;51.090;-115.340;2023-05-07T05:06:02;86344.00;;;8.20
74539;BMP180;66042;51.090;-115.340;2023-05-07T05:08:30;86343.40;;;8.20
74539;BMP180;66042;51.090;-115.340;2023-05-07T05:11:01;86342.40;;;8.10
74539;BMP180;66042;51.090;-115.340;2023-05-07T05:13:31;86339.60;;;8.10
74539;BMP180;66042;51.090;-115.340;2023-05-07T05:15:58;86334.00;;;8.10
74539;BMP180;66042;51.090;-115.340;2023-05-07T05:18:26;86336.20;;;8.00
74539;BMP180;66042;51.090;-115.340;2023-05-07T05:20:56;86331.40;;;8.00
74539;BMP180;66042;51.090;-115.340;2023-05-07T05:23:24;86328.40;;;8.00
74539;BMP180;66042;51.090;-115.340;2023-05-07T05:25:56;86328.20;;;8.00
74539;BMP180;66042;51.090;-115.340;2023-05-07T05:28:24;86327.00;;;8.00
74539;BMP180;66042;51.090;-115.340;2023-05-07T05:30:51;86326.40;;;8.00
74539;BMP180;66042;51.090;-115.340;2023-05-07T05:33:18;86327.40;;;8.00
74539;BMP180;66042;51.090;-115.340;2023-05-07T05:35:49;86327.40;;;7.96
74539;BMP180;66042;51.090;-115.340;2023-05-07T05:38:15;86323.60;;;7.90
74539;BMP180;66042;51.090;-115.340;2023-05-07T05:40:42;86320.20;;;7.90
74539;BMP180;66042;51.090;-115.340;2023-05-07T05:43:13;86321.80;;;7.80
74539;BMP180;66042;51.090;-115.340;2023-05-07T05:45:41;86319.00;;;7.80
74539;BMP180;66042;51.090;-115.340;2023-05-07T05:48:11;86314.80;;;7.70
74539;BMP180;66042;51.090;-115.340;2023-05-07T05:50:38;86319.80;;;7.70
74539;BMP180;66042;51.090;-115.340;2023-05-07T05:53:08;86322.20;;;7.70
74539;BMP180;66042;51.090;-115.340;2023-05-07T05:55:35;86320.00;;;7.78
74539;BMP180;66042;51.090;-115.340;2023-05-07T05:58:01;86317.60;;;7.80
74539;BMP180;66042;51.090;-115.340;2023-05-07T06:00:29;86321.60;;;7.84
74539;BMP180;66042;51.090;-115.340;2023-05-07T06:02:56;86319.20;;;7.90
74539;BMP180;66042;51.090;-115.340;2023-05-07T06:05:24;86316.00;;;7.90
74539;BMP180;66042;51.090;-115.340;2023-05-07T06:07:51;86312.40;;;7.92
74539;BMP180;66042;51.090;-115.340;2023-05-07T06:10:19;86316.00;;;8.00
74539;BMP180;66042;51.090;-115.340;2023-05-07T06:12:46;86314.20;;;8.00
74539;BMP180;66042;51.090;-115.340;2023-05-07T06:15:13;86316.80;;;7.96
74539;BMP180;66042;51.090;-115.340;2023-05-07T06:17:40;86311.60;;;7.80
74539;BMP180;66042;51.090;-115.340;2023-05-07T06:20:07;86308.80;;;7.80
74539;BMP180;66042;51.090;-115.340;2023-05-07T06:22:34;86309.20;;;7.80
74539;BMP180;66042;51.090;-115.340;2023-05-07T06:25:02;86309.60;;;7.70
74539;BMP180;66042;51.090;-115.340;2023-05-07T06:27:29;86309.60;;;7.70
74539;BMP180;66042;51.090;-115.340;2023-05-07T06:29:56;86307.60;;;7.70
74539;BMP180;66042;51.090;-115.340;2023-05-07T06:32:23;86309.20;;;7.70
74539;BMP180;66042;51.090;-115.340;2023-05-07T06:34:49;86308.20;;;7.70
74539;BMP180;66042;51.090;-115.340;2023-05-07T06:37:16;86306.60;;;7.74
74539;BMP180;66042;51.090;-115.340;2023-05-07T06:39:43;86305.20;;;7.74
74539;BMP180;66042;51.090;-115.340;2023-05-07T06:42:13;86301.20;;;7.80
74539;BMP180;66042;51.090;-115.340;2023-05-07T06:44:41;86295.80;;;7.80
74539;BMP180;66042;51.090;-115.340;2023-05-07T06:47:08;86296.40;;;7.70
74539;BMP180;66042;51.090;-115.340;2023-05-07T06:49:35;86295.20;;;7.70
74539;BMP180;66042;51.090;-115.340;2023-05-07T06:52:05;86293.80;;;7.70
74539;BMP180;66042;51.090;-115.340;2023-05-07T06:54:35;86293.00;;;7.70
74539;BMP180;66042;51.090;-115.340;2023-05-07T06:57:02;86292.40;;;7.70
74539;BMP180;66042;51.090;-115.340;2023-05-07T06:59:29;86292.20;;;7.70
74539;BMP180;66042;51.090;-115.340;2023-05-07T07:02:00;86293.40;;;7.70
74539;BMP180;66042;51.090;-115.340;2023-05-07T07:04:27;86292.80;;;7.70
74539;BMP180;66042;51.090;-115.340;2023-05-07T07:06:57;86292.80;;;7.70
74539;BMP180;66042;51.090;-115.340;2023-05-07T07:09:24;86295.60;;;7.70
74539;BMP180;66042;51.090;-115.340;2023-05-07T07:11:52;86293.80;;;7.70
74539;BMP180;66042;51.090;-115.340;2023-05-07T07:14:19;86291.80;;;7.70
74539;BMP180;66042;51.090;-115.340;2023-05-07T07:16:46;86290.60;;;7.70
74539;BMP180;66042;51.090;-115.340;2023-05-07T07:19:14;86286.60;;;7.70
74539;BMP180;66042;51.090;-115.340;2023-05-07T07:21:44;86287.00;;;7.70
74539;BMP180;66042;51.090;-115.340;2023-05-07T07:24:13;86285.80;;;7.70
74539;BMP180;66042;51.090;-115.340;2023-05-07T07:26:47;86283.20;;;7.70
74539;BMP180;66042;51.090;-115.340;2023-05-07T07:29:14;86280.00;;;7.70
74539;BMP180;66042;51.090;-115.340;2023-05-07T07:31:41;86278.00;;;7.60
74539;BMP180;66042;51.090;-115.340;2023-05-07T07:34:10;86277.80;;;7.60
74539;BMP180;66042;51.090;-115.340;2023-05-07T07:36:38;86274.40;;;7.60
74539;BMP180;66042;51.090;-115.340;2023-05-07T07:39:08;86276.60;;;7.60
74539;BMP180;66042;51.090;-115.340;2023-05-07T07:41:36;86278.00;;;7.60
74539;BMP180;66042;51.090;-115.340;2023-05-07T07:44:06;86272.60;;;7.60
74539;BMP180;66042;51.090;-115.340;2023-05-07T07:46:34;86277.80;;;7.60
74539;BMP180;66042;51.090;-115.340;2023-05-07T07:49:05;86277.20;;;7.58
74539;BMP180;66042;51.090;-115.340;2023-05-07T07:51:31;86274.00;;;7.50
74539;BMP180;66042;51.090;-115.340;2023-05-07T07:53:58;86270.60;;;7.50
74539;BMP180;66042;51.090;-115.340;2023-05-07T07:56:28;86267.80;;;7.50
74539;BMP180;66042;51.090;-115.340;2023-05-07T07:58:55;86267.40;;;7.48
74539;BMP180;66042;51.090;-115.340;2023-05-07T08:01:22;86262.60;;;7.40
74539;BMP180;66042;51.090;-115.340;2023-05-07T08:03:49;86261.80;;;7.30
74539;BMP180;66042;51.090;-115.340;2023-05-07T08:06:17;86264.00;;;7.30
74539;BMP180;66042;51.090;-115.340;2023-05-07T08:08:46;86261.80;;;7.30
74539;BMP180;66042;51.090;-115.340;2023-05-07T08:11:14;86264.00;;;7.30
74539;BMP180;66042;51.090;-115.340;2023-05-07T08:13:41;86263.00;;;7.36
74539;BMP180;66042;51.090;-115.340;2023-05-07T08:16:09;86265.00;;;7.40
74539;BMP180;66042;51.090;-115.340;2023-05-07T08:18:36;86262.00;;;7.40
74539;BMP180;66042;51.090;-115.340;2023-05-07T08:21:03;86260.60;;;7.40
74539;BMP180;66042;51.090;-115.340;2023-05-07T08:23:33;86263.20;;;7.40
74539;BMP180;66042;51.090;-115.340;2023-05-07T08:26:01;86262.00;;;7.40
74539;BMP180;66042;51.090;-115.340;2023-05-07T08:28:28;86256.00;;;7.40
74539;BMP180;66042;51.090;-115.340;2023-05-07T08:30:54;86249.60;;;7.40
74539;BMP180;66042;51.090;-115.340;2023-05-07T08:33:23;86250.00;;;7.42
74539;BMP180;66042;51.090;-115.340;2023-05-07T08:35:50;86248.20;;;7.40
74539;BMP180;66042;51.090;-115.340;2023-05-07T08:38:17;86246.40;;;7.40
74539;BMP180;66042;51.090;-115.340;2023-05-07T08:40:44;86244.60;;;7.40
74539;BMP180;66042;51.090;-115.340;2023-05-07T08:43:15;86238.20;;;7.34
74539;BMP180;66042;51.090;-115.340;2023-05-07T08:45:41;86238.40;;;7.30
74539;BMP180;66042;51.090;-115.340;2023-05-07T08:48:22;86236.80;;;7.20
74539;BMP180;66042;51.090;-115.340;2023-05-07T08:50:52;86235.20;;;7.14
74539;BMP180;66042;51.090;-115.340;2023-05-07T08:53:20;86230.80;;;7.10
74539;BMP180;66042;51.090;-115.340;2023-05-07T08:55:51;86230.00;;;7.10
74539;BMP180;66042;51.090;-115.340;2023-05-07T08:58:19;86228.80;;;7.10
74539;BMP180;66042;51.090;-115.340;2023-05-07T09:00:47;86229.80;;;7.00
74539;BMP180;66042;51.090;-115.340;2023-05-07T09:03:14;86234.00;;;7.00
74539;BMP180;66042;51.090;-115.340;2023-05-07T09:05:42;86232.40;;;7.00
74539;BMP180;66042;51.090;-115.340;2023-05-07T09:08:15;86229.40;;;7.00
74539;BMP180;66042;51.090;-115.340;2023-05-07T09:10:42;86229.20;;;7.00
74539;BMP180;66042;51.090;-115.340;2023-05-07T09:13:15;86225.00;;;7.00
74539;BMP180;66042;51.090;-115.340;2023-05-07T09:15:47;86224.00;;;7.00
74539;BMP180;66042;51.090;-115.340;2023-05-07T09:18:17;86221.60;;;7.00
74539;BMP180;66042;51.090;-115.340;2023-05-07T09:20:44;86215.60;;;7.00
74539;BMP180;66042;51.090;-115.340;2023-05-07T09:23:11;86212.40;;;6.98
74539;BMP180;66042;51.090;-115.340;2023-05-07T09:25:41;86210.60;;;6.90
74539;BMP180;66042;51.090;-115.340;2023-05-07T09:28:08;86213.00;;;6.90
74539;BMP180;66042;51.090;-115.340;2023-05-07T09:30:37;86206.60;;;6.90
74539;BMP180;66042;51.090;-115.340;2023-05-07T09:33:04;86203.40;;;6.90
74539;BMP180;66042;51.090;-115.340;2023-05-07T09:35:31;86205.00;;;6.88
74539;BMP180;66042;51.090;-115.340;2023-05-07T09:38:00;86204.00;;;6.80
74539;BMP180;66042;51.090;-115.340;2023-05-07T09:40:31;86201.00;;;6.80
74539;BMP180;66042;51.090;-115.340;2023-05-07T09:43:10;86194.80;;;6.80
74539;BMP180;66042;51.090;-115.340;2023-05-07T09:45:39;86196.40;;;6.80
74539;BMP180;66042;51.090;-115.340;2023-05-07T09:48:06;86198.00;;;6.80
74539;BMP180;66042;51.090;-115.340;2023-05-07T09:50:48;86198.40;;;6.80
74539;BMP180;66042;51.090;-115.340;2023-05-07T09:53:17;86198.20;;;6.80
74539;BMP180;66042;51.090;-115.340;2023-05-07T09:55:45;86199.60;;;6.88
74539;BMP180;66042;51.090;-115.340;2023-05-07T09:58:14;86191.00;;;6.82
74539;BMP180;66042;51.090;-115.340;2023-05-07T10:00:43;86195.60;;;6.80
74539;BMP180;66042;51.090;-115.340;2023-05-07T10:03:10;86194.60;;;6.84
74539;BMP180;66042;51.090;-115.340;2023-05-07T10:05:39;86196.20;;;6.80
74539;BMP180;66042;51.090;-115.340;2023-05-07T10:08:07;86197.20;;;6.82
74539;BMP180;66042;51.090;-115.340;2023-05-07T10:10:35;86192.80;;;6.80
74539;BMP180;66042;51.090;-115.340;2023-05-07T10:13:02;86189.00;;;6.80
74539;BMP180;66042;51.090;-115.340;2023-05-07T10:15:32;86192.00;;;6.82
74539;BMP180;66042;51.090;-115.340;2023-05-07T10:17:59;86189.60;;;6.80
74539;BMP180;66042;51.090;-115.340;2023-05-07T10:20:27;86193.20;;;6.80
74539;BMP180;66042;51.090;-115.340;2023-05-07T10:22:56;86196.40;;;6.80
74539;BMP180;66042;51.090;-115.340;2023-05-07T10:25:30;86193.20;;;6.74
74539;BMP180;66042;51.090;-115.340;2023-05-07T10:28:06;86194.80;;;6.70
74539;BMP180;66042;51.090;-115.340;2023-05-07T10:33:53;86192.40;;;6.70
74539;BMP180;66042;51.090;-115.340;2023-05-07T10:36:22;86194.20;;;6.70
74539;BMP180;66042;51.090;-115.340;2023-05-07T10:38:50;86190.40;;;6.70
74539;BMP180;66042;51.090;-115.340;2023-05-07T10:41:17;86194.40;;;6.70
74539;BMP180;66042;51.090;-115.340;2023-05-07T10:43:45;86187.80;;;6.74
74539;BMP180;66042;51.090;-115.340;2023-05-07T10:46:22;86189.00;;;6.70
74539;BMP180;66042;51.090;-115.340;2023-05-07T10:51:35;86187.80;;;6.70
74539;BMP180;66042;51.090;-115.340;2023-05-07T10:56:40;86190.00;;;6.70
74539;BMP180;66042;51.090;-115.340;2023-05-07T11:02:03;86184.40;;;6.70
74539;BMP180;66042;51.090;-115.340;2023-05-07T11:04:32;86182.40;;;6.70
74539;BMP180;66042;51.090;-115.340;2023-05-07T11:09:55;86187.40;;;6.60
74539;BMP180;66042;51.090;-115.340;2023-05-07T11:15:11;86186.80;;;6.60
74539;BMP180;66042;51.090;-115.340;2023-05-07T11:17:58;86185.00;;;6.60
74539;BMP180;66042;51.090;-115.340;2023-05-07T11:20:56;86184.00;;;6.60
74539;BMP180;66042;51.090;-115.340;2023-05-07T11:26:08;86181.20;;;6.50
74539;BMP180;66042;51.090;-115.340;2023-05-07T11:28:43;86180.00;;;6.50
74539;BMP180;66042;51.090;-115.340;2023-05-07T11:31:11;86178.20;;;6.50
74539;BMP180;66042;51.090;-115.340;2023-05-07T11:33:38;86183.00;;;6.50
74539;BMP180;66042;51.090;-115.340;2023-05-07T11:36:08;86183.40;;;6.52
74539;BMP180;66042;51.090;-115.340;2023-05-07T11:38:38;86185.40;;;6.60
74539;BMP180;66042;51.090;-115.340;2023-05-07T11:41:08;86185.40;;;6.60
74539;BMP180;66042;51.090;-115.340;2023-05-07T11:43:35;86184.80;;;6.64
74539;BMP180;66042;51.090;-115.340;2023-05-07T11:46:12;86182.40;;;6.68
74539;BMP180;66042;51.090;-115.340;2023-05-07T11:48:40;86180.00;;;6.70
74539;BMP180;66042;51.090;-115.340;2023-05-07T11:51:08;86180.40;;;6.70
74539;BMP180;66042;51.090;-115.340;2023-05-07T11:53:42;86180.00;;;6.70
74539;BMP180;66042;51.090;-115.340;2023-05-07T11:56:19;86178.40;;;6.70
74539;BMP180;66042;51.090;-115.340;2023-05-07T11:58:48;86172.40;;;6.70
74539;BMP180;66042;51.090;-115.340;2023-05-07T12:01:16;86174.60;;;6.70
74539;BMP180;66042;51.090;-115.340;2023-05-07T12:03:44;86168.40;;;6.70
74539;BMP180;66042;51.090;-115.340;2023-05-07T12:06:16;86164.60;;;6.70
74539;BMP180;66042;51.090;-115.340;2023-05-07T12:08:45;86162.80;;;6.70
74539;BMP180;66042;51.090;-115.340;2023-05-07T12:11:24;86160.40;;;6.62
74539;BMP180;66042;51.090;-115.340;2023-05-07T12:13:54;86159.80;;;6.60
74539;BMP180;66042;51.090;-115.340;2023-05-07T12:16:22;86159.60;;;6.60
74539;BMP180;66042;51.090;-115.340;2023-05-07T12:18:50;86156.80;;;6.60
74539;BMP180;66042;51.090;-115.340;2023-05-07T12:21:19;86157.80;;;6.60
74539;BMP180;66042;51.090;-115.340;2023-05-07T12:23:48;86155.20;;;6.60
74539;BMP180;66042;51.090;-115.340;2023-05-07T12:26:15;86158.20;;;6.60
74539;BMP180;66042;51.090;-115.340;2023-05-07T12:28:42;86156.00;;;6.62
74539;BMP180;66042;51.090;-115.340;2023-05-07T12:31:09;86156.60;;;6.70
74539;BMP180;66042;51.090;-115.340;2023-05-07T12:33:36;86154.20;;;6.70
74539;BMP180;66042;51.090;-115.340;2023-05-07T12:36:06;86156.00;;;6.70
74539;BMP180;66042;51.090;-115.340;2023-05-07T12:38:38;86153.00;;;6.70
74539;BMP180;66042;51.090;-115.340;2023-05-07T12:41:08;86156.80;;;6.70
74539;BMP180;66042;51.090;-115.340;2023-05-07T12:43:36;86151.00;;;6.72
74539;BMP180;66042;51.090;-115.340;2023-05-07T12:46:06;86145.80;;;6.80
74539;BMP180;66042;51.090;-115.340;2023-05-07T12:48:37;86143.60;;;6.80
74539;BMP180;66042;51.090;-115.340;2023-05-07T12:51:06;86143.80;;;6.80
74539;BMP180;66042;51.090;-115.340;2023-05-07T12:53:40;86137.20;;;6.80
74539;BMP180;66042;51.090;-115.340;2023-05-07T12:56:09;86133.20;;;6.80
74539;BMP180;66042;51.090;-115.340;2023-05-07T12:58:36;86133.40;;;6.80
74539;BMP180;66042;51.090;-115.340;2023-05-07T13:01:08;86134.60;;;6.70
74539;BMP180;66042;51.090;-115.340;2023-05-07T13:03:37;86127.60;;;6.70
74539;BMP180;66042;51.090;-115.340;2023-05-07T13:06:09;86126.80;;;6.60
74539;BMP180;66042;51.090;-115.340;2023-05-07T13:08:42;86128.40;;;6.40
74539;BMP180;66042;51.090;-115.340;2023-05-07T13:11:13;86127.20;;;6.40
74539;BMP180;66042;51.090;-115.340;2023-05-07T13:13:41;86123.40;;;6.46
74539;BMP180;66042;51.090;-115.340;2023-05-07T13:16:10;86124.00;;;6.52
74539;BMP180;66042;51.090;-115.340;2023-05-07T13:18:40;86119.60;;;6.60
74539;BMP180;66042;51.090;-115.340;2023-05-07T13:21:07;86124.40;;;6.70
74539;BMP180;66042;51.090;-115.340;2023-05-07T13:23:34;86127.00;;;6.80
74539;BMP180;66042;51.090;-115.340;2023-05-07T13:26:01;86127.40;;;6.78
74539;BMP180;66042;51.090;-115.340;2023-05-07T13:28:28;86127.00;;;6.70
74539;BMP180;66042;51.090;-115.340;2023-05-07T13:30:55;86125.40;;;6.70
74539;BMP180;66042;51.090;-115.340;2023-05-07T13:33:22;86128.60;;;6.80
74539;BMP180;66042;51.090;-115.340;2023-05-07T13:35:50;86130.80;;;6.80
74539;BMP180;66042;51.090;-115.340;2023-05-07T13:38:17;86129.20;;;6.90
74539;BMP180;66042;51.090;-115.340;2023-05-07T13:40:44;86130.60;;;6.80
74539;BMP180;66042;51.090;-115.340;2023-05-07T13:43:10;86128.00;;;6.90
74539;BMP180;66042;51.090;-115.340;2023-05-07T13:45:37;86133.40;;;6.90
74539;BMP180;66042;51.090;-115.340;2023-05-07T13:48:04;86136.20;;;7.00
74539;BMP180;66042;51.090;-115.340;2023-05-07T13:50:31;86131.80;;;7.02
74539;BMP180;66042;51.090;-115.340;2023-05-07T13:52:59;86131.60;;;7.10
74539;BMP180;66042;51.090;-115.340;2023-05-07T13:55:27;86135.20;;;7.10
74539;BMP180;66042;51.090;-115.340;2023-05-07T13:58:00;86134.00;;;7.10
74539;BMP180;66042;51.090;-115.340;2023-05-07T14:00:28;86134.20;;;7.10
74539;BMP180;66042;51.090;-115.340;2023-05-07T14:02:56;86129.60;;;7.20
74539;BMP180;66042;51.090;-115.340;2023-05-07T14:05:24;86129.20;;;7.20
74539;BMP180;66042;51.090;-115.340;2023-05-07T14:07:54;86132.60;;;7.20
74539;BMP180;66042;51.090;-115.340;2023-05-07T14:10:22;86126.20;;;7.20
74539;BMP180;66042;51.090;-115.340;2023-05-07T14:12:49;86131.60;;;7.20